sensor_id;sensor_type;location;lat;lon;timestamp;noise_LAeq;noise_LA_min;noise_LA_max;noise_LA01;noise_LA95
66456;Laerm;56833;52.254;5.598;2022-09-09T00:00:11;47.02;44.42;49.99;;
66456;Laerm;56833;52.254;5.598;2022-09-09T00:00:22;47.63;44.52;50.91;;
66456;Laerm;56833;52.254;5.598;2022-09-09T00:00:32;46.57;43.45;49.80;;
66456;Laerm;56833;52.254;5.598;2022-09-09T00:00:49;45.85;42.37;50.43;;
66456;Laerm;56833;52.254;5.598;2022-09-09T00:01:58;47.13;43.00;51.29;;
66456;Laerm;56833;52.254;5.598;2022-09-09T00:02:27;46.88;43.70;52.16;;
66456;Laerm;56833;52.254;5.598;2022-09-09T00:02:37;46.95;44.00;51.68;;
66456;Laerm;56833;52.254;5.598;2022-09-09T00:03:08;46.28;42.62;50.96;;
66456;Laerm;56833;52.254;5.598;2022-09-09T00:03:25;46.55;43.01;50.83;;
66456;Laerm;56833;52.254;5.598;2022-09-09T00:03:57;45.77;41.38;49.88;;
66456;Laerm;56833;52.254;5.598;2022-09-09T00:04:12;45.38;42.13;51.01;;
66456;Laerm;56833;52.254;5.598;2022-09-09T00:04:37;46.15;42.51;50.80;;
66456;Laerm;56833;52.254;5.598;2022-09-09T00:05:17;46.42;43.24;52.78;;
66456;Laerm;56833;52.254;5.598;2022-09-09T00:05:38;46.69;41.90;50.29;;
66456;Laerm;56833;52.254;5.598;2022-09-09T00:06:17;46.41;43.92;51.11;;
66456;Laerm;56833;52.254;5.598;2022-09-09T00:06:32;45.82;42.44;51.21;;
66456;Laerm;56833;52.254;5.598;2022-09-09T00:06:49;45.82;42.25;53.56;;
66456;Laerm;56833;52.254;5.598;2022-09-09T00:07:51;46.56;43.44;50.82;;
66456;Laerm;56833;52.254;5.598;2022-09-09T00:08:02;47.13;43.77;51.71;;
66456;Laerm;56833;52.254;5.598;2022-09-09T00:08:25;46.92;44.16;50.75;;
66456;Laerm;56833;52.254;5.598;2022-09-09T00:09:19;47.10;44.01;52.09;;
66456;Laerm;56833;52.254;5.598;2022-09-09T00:09:33;46.29;41.91;52.08;;
66456;Laerm;56833;52.254;5.598;2022-09-09T00:09:53;46.56;42.40;52.01;;
66456;Laerm;56833;52.254;5.598;2022-09-09T00:10:22;46.63;43.79;51.56;;
66456;Laerm;56833;52.254;5.598;2022-09-09T00:10:38;46.04;42.44;50.15;;
66456;Laerm;56833;52.254;5.598;2022-09-09T00:10:51;46.22;43.13;50.23;;
66456;Laerm;56833;52.254;5.598;2022-09-09T00:11:07;46.06;41.69;49.58;;
66456;Laerm;56833;52.254;5.598;2022-09-09T00:11:24;45.54;41.16;51.22;;
66456;Laerm;56833;52.254;5.598;2022-09-09T00:11:46;45.03;41.20;49.95;;
66456;Laerm;56833;52.254;5.598;2022-09-09T00:12:12;44.72;40.42;49.50;;
66456;Laerm;56833;52.254;5.598;2022-09-09T00:13:25;44.14;40.33;51.45;;
66456;Laerm;56833;52.254;5.598;2022-09-09T00:13:40;43.85;40.39;56.91;;
66456;Laerm;56833;52.254;5.598;2022-09-09T00:13:55;44.11;40.35;50.29;;
66456;Laerm;56833;52.254;5.598;2022-09-09T00:14:10;44.39;41.27;49.00;;
66456;Laerm;56833;52.254;5.598;2022-09-09T00:14:31;43.33;39.60;51.75;;
66456;Laerm;56833;52.254;5.598;2022-09-09T00:14:54;42.67;39.18;50.10;;
66456;Laerm;56833;52.254;5.598;2022-09-09T00:15:20;40.96;37.87;46.68;;
66456;Laerm;56833;52.254;5.598;2022-09-09T00:16:08;41.31;38.02;48.10;;
66456;Laerm;56833;52.254;5.598;2022-09-09T00:16:15;40.59;36.64;47.13;;
66456;Laerm;56833;52.254;5.598;2022-09-09T00:16:27;41.15;36.40;51.12;;
66456;Laerm;56833;52.254;5.598;2022-09-09T00:16:42;41.72;38.46;46.34;;
66456;Laerm;56833;52.254;5.598;2022-09-09T00:16:55;42.92;39.01;49.14;;
66456;Laerm;56833;52.254;5.598;2022-09-09T00:17:14;42.92;39.61;47.48;;
66456;Laerm;56833;52.254;5.598;2022-09-09T00:18:29;43.14;38.94;50.24;;
66456;Laerm;56833;52.254;5.598;2022-09-09T00:19:02;43.56;39.30;49.62;;
66456;Laerm;56833;52.254;5.598;2022-09-09T00:19:26;43.15;38.48;48.76;;
66456;Laerm;56833;52.254;5.598;2022-09-09T00:19:56;43.55;39.25;50.68;;
66456;Laerm;56833;52.254;5.598;2022-09-09T00:21:06;44.21;39.17;50.41;;
66456;Laerm;56833;52.254;5.598;2022-09-09T00:21:17;44.03;38.43;51.31;;
66456;Laerm;56833;52.254;5.598;2022-09-09T00:21:38;43.51;38.97;48.95;;
66456;Laerm;56833;52.254;5.598;2022-09-09T00:22:21;44.01;40.06;49.70;;
66456;Laerm;56833;52.254;5.598;2022-09-09T00:22:32;44.32;40.56;51.99;;
66456;Laerm;56833;52.254;5.598;2022-09-09T00:22:45;43.89;40.39;49.89;;
66456;Laerm;56833;52.254;5.598;2022-09-09T00:23:19;44.10;39.52;50.83;;
66456;Laerm;56833;52.254;5.598;2022-09-09T00:23:35;43.42;38.94;50.07;;
66456;Laerm;56833;52.254;5.598;2022-09-09T00:23:50;43.65;39.28;49.16;;
66456;Laerm;56833;52.254;5.598;2022-09-09T00:24:23;42.96;38.53;49.41;;
66456;Laerm;56833;52.254;5.598;2022-09-09T00:24:40;43.48;38.55;50.86;;
66456;Laerm;56833;52.254;5.598;2022-09-09T00:24:55;43.53;39.02;50.73;;
66456;Laerm;56833;52.254;5.598;2022-09-09T00:25:16;43.24;39.27;49.73;;
66456;Laerm;56833;52.254;5.598;2022-09-09T00:25:39;42.85;38.57;49.12;;
66456;Laerm;56833;52.254;5.598;2022-09-09T00:26:44;41.28;38.01;46.13;;
66456;Laerm;56833;52.254;5.598;2022-09-09T00:27:04;41.84;38.07;49.19;;
66456;Laerm;56833;52.254;5.598;2022-09-09T00:27:32;40.13;36.62;46.69;;
66456;Laerm;56833;52.254;5.598;2022-09-09T00:27:48;39.48;35.63;44.65;;
66456;Laerm;56833;52.254;5.598;2022-09-09T00:27:59;39.40;35.64;45.28;;
66456;Laerm;56833;52.254;5.598;2022-09-09T00:28:13;39.04;35.19;47.00;;
66456;Laerm;56833;52.254;5.598;2022-09-09T00:28:25;38.98;35.90;45.32;;
66456;Laerm;56833;52.254;5.598;2022-09-09T00:28:41;39.28;35.72;43.64;;
66456;Laerm;56833;52.254;5.598;2022-09-09T00:29:39;38.40;35.26;43.60;;
66456;Laerm;56833;52.254;5.598;2022-09-09T00:30:14;38.24;34.54;48.38;;
66456;Laerm;56833;52.254;5.598;2022-09-09T00:30:27;37.54;33.93;46.86;;
66456;Laerm;56833;52.254;5.598;2022-09-09T00:30:40;36.93;34.16;43.28;;
66456;Laerm;56833;52.254;5.598;2022-09-09T00:30:51;36.82;34.39;43.06;;
66456;Laerm;56833;52.254;5.598;2022-09-09T00:31:09;36.98;33.92;51.72;;
66456;Laerm;56833;52.254;5.598;2022-09-09T00:31:25;36.15;33.15;44.06;;
66456;Laerm;56833;52.254;5.598;2022-09-09T00:31:36;35.86;32.78;42.94;;
66456;Laerm;56833;52.254;5.598;2022-09-09T00:31:47;35.95;33.15;41.80;;
66456;Laerm;56833;52.254;5.598;2022-09-09T00:31:59;37.14;33.24;47.72;;
66456;Laerm;56833;52.254;5.598;2022-09-09T00:32:16;35.74;32.34;43.14;;
66456;Laerm;56833;52.254;5.598;2022-09-09T00:32:30;34.95;31.70;44.26;;
66456;Laerm;56833;52.254;5.598;2022-09-09T00:32:40;34.46;31.93;40.10;;
66456;Laerm;56833;52.254;5.598;2022-09-09T00:32:58;34.48;31.97;41.44;;
66456;Laerm;56833;52.254;5.598;2022-09-09T00:33:11;33.96;31.40;40.32;;
66456;Laerm;56833;52.254;5.598;2022-09-09T00:33:23;33.75;31.23;42.86;;
66456;Laerm;56833;52.254;5.598;2022-09-09T00:33:34;33.74;30.74;41.82;;
66456;Laerm;56833;52.254;5.598;2022-09-09T00:33:44;33.26;30.48;40.20;;
66456;Laerm;56833;52.254;5.598;2022-09-09T00:34:26;32.59;29.81;43.07;;
66456;Laerm;56833;52.254;5.598;2022-09-09T00:34:39;32.96;30.43;43.20;;
66456;Laerm;56833;52.254;5.598;2022-09-09T00:35:14;33.06;30.55;42.26;;
66456;Laerm;56833;52.254;5.598;2022-09-09T00:35:29;33.05;30.16;43.01;;
66456;Laerm;56833;52.254;5.598;2022-09-09T00:35:44;32.98;29.65;49.79;;
66456;Laerm;56833;52.254;5.598;2022-09-09T00:35:57;32.67;29.62;48.79;;
66456;Laerm;56833;52.254;5.598;2022-09-09T00:36:12;32.39;30.02;39.25;;
66456;Laerm;56833;52.254;5.598;2022-09-09T00:36:24;32.30;30.27;42.02;;
66456;Laerm;56833;52.254;5.598;2022-09-09T00:36:36;32.28;30.17;40.38;;
66456;Laerm;56833;52.254;5.598;2022-09-09T00:36:48;32.36;30.05;41.79;;
66456;Laerm;56833;52.254;5.598;2022-09-09T00:36:59;33.26;31.69;40.73;;
66456;Laerm;56833;52.254;5.598;2022-09-09T00:37:09;33.53;31.17;41.54;;
66456;Laerm;56833;52.254;5.598;2022-09-09T00:37:20;32.80;30.85;40.28;;
66456;Laerm;56833;52.254;5.598;2022-09-09T00:37:35;33.02;30.46;40.04;;
66456;Laerm;56833;52.254;5.598;2022-09-09T00:37:46;33.98;30.91;42.52;;
66456;Laerm;56833;52.254;5.598;2022-09-09T00:38:01;33.31;30.45;42.60;;
66456;Laerm;56833;52.254;5.598;2022-09-09T00:38:35;31.94;29.74;42.73;;
66456;Laerm;56833;52.254;5.598;2022-09-09T00:38:48;32.20;29.88;44.37;;
66456;Laerm;56833;52.254;5.598;2022-09-09T00:39:00;31.83;30.04;40.50;;
66456;Laerm;56833;52.254;5.598;2022-09-09T00:39:47;33.33;30.23;44.15;;
66456;Laerm;56833;52.254;5.598;2022-09-09T00:39:57;32.14;30.39;41.74;;
66456;Laerm;56833;52.254;5.598;2022-09-09T00:39:59;34.36;31.88;41.21;;
66456;Laerm;56833;52.254;5.598;2022-09-09T00:40:38;32.49;30.10;51.29;;
66456;Laerm;56833;52.254;5.598;2022-09-09T00:40:52;32.56;30.84;39.31;;
66456;Laerm;56833;52.254;5.598;2022-09-09T00:41:22;32.26;30.09;43.00;;
66456;Laerm;56833;52.254;5.598;2022-09-09T00:42:06;32.41;29.87;48.69;;
66456;Laerm;56833;52.254;5.598;2022-09-09T00:42:20;32.25;30.07;42.08;;
66456;Laerm;56833;52.254;5.598;2022-09-09T00:42:39;32.30;30.09;41.75;;
66456;Laerm;56833;52.254;5.598;2022-09-09T00:42:54;32.43;30.17;39.78;;
66456;Laerm;56833;52.254;5.598;2022-09-09T00:43:29;33.07;30.78;37.05;;
66456;Laerm;56833;52.254;5.598;2022-09-09T00:43:40;32.90;30.12;46.71;;
66456;Laerm;56833;52.254;5.598;2022-09-09T00:43:56;34.89;31.82;40.77;;
66456;Laerm;56833;52.254;5.598;2022-09-09T00:44:33;35.58;31.51;42.32;;
66456;Laerm;56833;52.254;5.598;2022-09-09T00:44:52;35.77;32.57;44.52;;
66456;Laerm;56833;52.254;5.598;2022-09-09T00:45:15;35.39;32.22;43.47;;
66456;Laerm;56833;52.254;5.598;2022-09-09T00:45:58;32.50;30.45;41.41;;
66456;Laerm;56833;52.254;5.598;2022-09-09T00:46:48;32.84;30.54;41.59;;
66456;Laerm;56833;52.254;5.598;2022-09-09T00:47:58;35.13;32.54;43.14;;
66456;Laerm;56833;52.254;5.598;2022-09-09T00:48:11;33.34;31.15;38.39;;
66456;Laerm;56833;52.254;5.598;2022-09-09T00:48:28;33.27;31.12;44.77;;
66456;Laerm;56833;52.254;5.598;2022-09-09T00:49:20;33.39;30.73;38.54;;
66456;Laerm;56833;52.254;5.598;2022-09-09T00:49:43;32.91;31.06;39.94;;
66456;Laerm;56833;52.254;5.598;2022-09-09T00:50:35;32.82;30.49;46.20;;
66456;Laerm;56833;52.254;5.598;2022-09-09T00:51:01;32.44;30.68;39.64;;
66456;Laerm;56833;52.254;5.598;2022-09-09T00:51:19;31.77;29.96;38.94;;
66456;Laerm;56833;52.254;5.598;2022-09-09T00:52:24;36.20;33.01;42.56;;
66456;Laerm;56833;52.254;5.598;2022-09-09T00:53:00;31.84;30.39;37.51;;
66456;Laerm;56833;52.254;5.598;2022-09-09T00:53:31;31.13;29.54;36.85;;
66456;Laerm;56833;52.254;5.598;2022-09-09T00:54:19;34.94;31.29;42.62;;
66456;Laerm;56833;52.254;5.598;2022-09-09T00:55:45;33.78;30.31;45.74;;
66456;Laerm;56833;52.254;5.598;2022-09-09T00:56:13;32.56;31.07;36.90;;
66456;Laerm;56833;52.254;5.598;2022-09-09T00:56:25;33.52;31.47;38.73;;
66456;Laerm;56833;52.254;5.598;2022-09-09T00:56:38;32.94;31.28;37.01;;
66456;Laerm;56833;52.254;5.598;2022-09-09T00:57:22;32.98;30.70;38.34;;
66456;Laerm;56833;52.254;5.598;2022-09-09T00:57:36;33.82;31.51;38.94;;
66456;Laerm;56833;52.254;5.598;2022-09-09T00:57:47;35.24;32.52;42.22;;
66456;Laerm;56833;52.254;5.598;2022-09-09T00:58:06;36.48;33.14;45.76;;
66456;Laerm;56833;52.254;5.598;2022-09-09T00:58:18;37.64;32.75;47.37;;
66456;Laerm;56833;52.254;5.598;2022-09-09T00:58:28;34.55;31.88;41.80;;
66456;Laerm;56833;52.254;5.598;2022-09-09T00:58:40;33.73;30.93;42.63;;
66456;Laerm;56833;52.254;5.598;2022-09-09T00:59:24;32.26;30.58;38.41;;
66456;Laerm;56833;52.254;5.598;2022-09-09T01:00:26;33.44;30.45;40.43;;
66456;Laerm;56833;52.254;5.598;2022-09-09T01:00:40;32.30;30.54;37.53;;
66456;Laerm;56833;52.254;5.598;2022-09-09T01:00:57;32.66;30.12;39.41;;
66456;Laerm;56833;52.254;5.598;2022-09-09T01:01:12;32.56;30.17;40.32;;
66456;Laerm;56833;52.254;5.598;2022-09-09T01:01:23;32.08;30.50;35.12;;
66456;Laerm;56833;52.254;5.598;2022-09-09T01:01:33;31.38;29.82;35.43;;
66456;Laerm;56833;52.254;5.598;2022-09-09T01:01:45;31.64;29.80;35.78;;
66456;Laerm;56833;52.254;5.598;2022-09-09T01:01:55;32.03;30.13;38.89;;
66456;Laerm;56833;52.254;5.598;2022-09-09T01:02:42;30.79;29.18;39.61;;
66456;Laerm;56833;52.254;5.598;2022-09-09T01:03:15;30.76;29.25;35.99;;
66456;Laerm;56833;52.254;5.598;2022-09-09T01:03:36;31.05;29.39;37.46;;
66456;Laerm;56833;52.254;5.598;2022-09-09T01:03:53;31.82;29.37;37.17;;
66456;Laerm;56833;52.254;5.598;2022-09-09T01:04:10;31.82;30.19;36.68;;
66456;Laerm;56833;52.254;5.598;2022-09-09T01:04:33;32.06;30.53;38.17;;
66456;Laerm;56833;52.254;5.598;2022-09-09T01:04:46;32.45;30.30;37.50;;
66456;Laerm;56833;52.254;5.598;2022-09-09T01:04:59;31.95;30.20;38.12;;
66456;Laerm;56833;52.254;5.598;2022-09-09T01:05:13;33.05;30.15;44.32;;
66456;Laerm;56833;52.254;5.598;2022-09-09T01:06:33;32.42;30.39;39.84;;
66456;Laerm;56833;52.254;5.598;2022-09-09T01:06:44;31.91;30.07;36.63;;
66456;Laerm;56833;52.254;5.598;2022-09-09T01:07:18;32.38;30.23;41.89;;
66456;Laerm;56833;52.254;5.598;2022-09-09T01:07:29;32.18;30.07;38.17;;
66456;Laerm;56833;52.254;5.598;2022-09-09T01:07:40;32.90;30.80;42.66;;
66456;Laerm;56833;52.254;5.598;2022-09-09T01:07:54;32.10;29.89;47.46;;
66456;Laerm;56833;52.254;5.598;2022-09-09T01:08:26;32.12;30.22;35.50;;
66456;Laerm;56833;52.254;5.598;2022-09-09T01:09:15;33.26;30.39;47.44;;
66456;Laerm;56833;52.254;5.598;2022-09-09T01:10:03;31.88;29.98;34.15;;
66456;Laerm;56833;52.254;5.598;2022-09-09T01:10:21;31.95;30.17;37.61;;
66456;Laerm;56833;52.254;5.598;2022-09-09T01:10:37;31.24;29.71;34.36;;
66456;Laerm;56833;52.254;5.598;2022-09-09T01:10:52;31.56;29.94;37.28;;
66456;Laerm;56833;52.254;5.598;2022-09-09T01:11:03;31.67;30.28;33.30;;
66456;Laerm;56833;52.254;5.598;2022-09-09T01:11:20;31.31;29.83;39.69;;
66456;Laerm;56833;52.254;5.598;2022-09-09T01:12:28;31.65;29.52;39.43;;
66456;Laerm;56833;52.254;5.598;2022-09-09T02:42:40;31.31;29.24;46.88;;
66456;Laerm;56833;52.254;5.598;2022-09-09T02:42:51;31.67;29.31;41.11;;
66456;Laerm;56833;52.254;5.598;2022-09-09T02:43:01;31.51;29.84;42.71;;
66456;Laerm;56833;52.254;5.598;2022-09-09T02:43:13;31.03;29.70;32.91;;
66456;Laerm;56833;52.254;5.598;2022-09-09T02:43:34;30.87;29.41;38.33;;
66456;Laerm;56833;52.254;5.598;2022-09-09T02:43:45;30.84;29.68;36.26;;
66456;Laerm;56833;52.254;5.598;2022-09-09T02:43:55;30.77;29.34;32.18;;
66456;Laerm;56833;52.254;5.598;2022-09-09T02:44:10;30.82;29.57;34.38;;
66456;Laerm;56833;52.254;5.598;2022-09-09T02:44:21;30.86;29.71;34.15;;
66456;Laerm;56833;52.254;5.598;2022-09-09T02:44:35;30.76;28.77;34.46;;
66456;Laerm;56833;52.254;5.598;2022-09-09T02:44:46;30.92;29.75;37.33;;
66456;Laerm;56833;52.254;5.598;2022-09-09T02:44:59;31.24;29.25;38.46;;
66456;Laerm;56833;52.254;5.598;2022-09-09T02:45:10;31.75;29.84;39.65;;
66456;Laerm;56833;52.254;5.598;2022-09-09T02:45:25;34.03;30.67;42.65;;
66456;Laerm;56833;52.254;5.598;2022-09-09T02:45:42;34.06;31.09;39.47;;
66456;Laerm;56833;52.254;5.598;2022-09-09T02:46:01;33.67;31.02;38.99;;
66456;Laerm;56833;52.254;5.598;2022-09-09T02:47:48;31.37;29.81;36.29;;
66456;Laerm;56833;52.254;5.598;2022-09-09T02:48:11;32.26;30.08;39.96;;
66456;Laerm;56833;52.254;5.598;2022-09-09T02:48:30;32.34;30.35;35.98;;
66456;Laerm;56833;52.254;5.598;2022-09-09T02:48:59;32.90;30.31;38.09;;
66456;Laerm;56833;52.254;5.598;2022-09-09T02:49:16;32.14;29.99;45.64;;
66456;Laerm;56833;52.254;5.598;2022-09-09T02:49:50;31.67;30.06;34.04;;
66456;Laerm;56833;52.254;5.598;2022-09-09T02:50:34;32.67;30.34;37.41;;
66456;Laerm;56833;52.254;5.598;2022-09-09T02:51:03;32.54;30.36;41.50;;
66456;Laerm;56833;52.254;5.598;2022-09-09T02:51:32;31.71;29.66;45.34;;
66456;Laerm;56833;52.254;5.598;2022-09-09T02:52:08;32.16;30.14;36.99;;
66456;Laerm;56833;52.254;5.598;2022-09-09T02:52:25;32.56;30.89;41.05;;
66456;Laerm;56833;52.254;5.598;2022-09-09T02:53:18;31.70;30.21;37.36;;
66456;Laerm;56833;52.254;5.598;2022-09-09T02:53:34;31.96;30.38;39.39;;
66456;Laerm;56833;52.254;5.598;2022-09-09T02:53:50;32.18;30.19;40.30;;
66456;Laerm;56833;52.254;5.598;2022-09-09T02:54:17;32.37;30.56;40.66;;
66456;Laerm;56833;52.254;5.598;2022-09-09T02:54:32;32.80;30.67;35.91;;
66456;Laerm;56833;52.254;5.598;2022-09-09T02:54:45;32.58;30.91;35.58;;
66456;Laerm;56833;52.254;5.598;2022-09-09T02:54:57;32.04;30.55;34.70;;
66456;Laerm;56833;52.254;5.598;2022-09-09T02:55:18;32.19;30.59;38.37;;
66456;Laerm;56833;52.254;5.598;2022-09-09T02:56:05;32.67;30.75;35.80;;
66456;Laerm;56833;52.254;5.598;2022-09-09T02:56:13;32.81;30.81;36.08;;
66456;Laerm;56833;52.254;5.598;2022-09-09T02:56:29;31.92;29.87;33.66;;
66456;Laerm;56833;52.254;5.598;2022-09-09T02:56:46;32.13;29.79;35.98;;
66456;Laerm;56833;52.254;5.598;2022-09-09T02:57:31;32.97;30.39;46.27;;
66456;Laerm;56833;52.254;5.598;2022-09-09T02:57:43;32.45;30.41;44.72;;
66456;Laerm;56833;52.254;5.598;2022-09-09T02:57:57;32.64;30.97;37.20;;
66456;Laerm;56833;52.254;5.598;2022-09-09T02:58:09;32.81;31.10;35.13;;
66456;Laerm;56833;52.254;5.598;2022-09-09T02:58:21;32.96;31.11;35.62;;
66456;Laerm;56833;52.254;5.598;2022-09-09T02:58:34;33.37;31.30;36.36;;
66456;Laerm;56833;52.254;5.598;2022-09-09T02:58:46;33.12;31.29;40.21;;
66456;Laerm;56833;52.254;5.598;2022-09-09T02:58:57;33.20;31.52;38.13;;
66456;Laerm;56833;52.254;5.598;2022-09-09T02:59:07;33.83;31.58;38.91;;
66456;Laerm;56833;52.254;5.598;2022-09-09T02:59:18;34.11;32.21;38.17;;
66456;Laerm;56833;52.254;5.598;2022-09-09T02:59:28;33.94;32.24;39.47;;
66456;Laerm;56833;52.254;5.598;2022-09-09T02:59:43;33.51;31.75;42.94;;
66456;Laerm;56833;52.254;5.598;2022-09-09T02:59:56;34.17;32.31;41.61;;
66456;Laerm;56833;52.254;5.598;2022-09-09T03:00:07;34.49;32.25;37.31;;
66456;Laerm;56833;52.254;5.598;2022-09-09T03:00:25;34.40;32.49;36.89;;
66456;Laerm;56833;52.254;5.598;2022-09-09T03:00:36;34.42;32.39;39.97;;
66456;Laerm;56833;52.254;5.598;2022-09-09T03:00:47;33.50;31.80;35.14;;
66456;Laerm;56833;52.254;5.598;2022-09-09T03:00:58;33.52;31.95;36.25;;
66456;Laerm;56833;52.254;5.598;2022-09-09T03:01:11;33.39;31.48;39.54;;
66456;Laerm;56833;52.254;5.598;2022-09-09T03:01:21;34.80;32.92;37.40;;
66456;Laerm;56833;52.254;5.598;2022-09-09T03:01:31;34.19;32.21;36.81;;
66456;Laerm;56833;52.254;5.598;2022-09-09T03:01:44;33.84;32.26;36.53;;
66456;Laerm;56833;52.254;5.598;2022-09-09T03:01:55;34.01;32.05;37.72;;
66456;Laerm;56833;52.254;5.598;2022-09-09T03:02:05;33.37;31.33;35.69;;
66456;Laerm;56833;52.254;5.598;2022-09-09T03:02:15;33.74;31.74;35.82;;
66456;Laerm;56833;52.254;5.598;2022-09-09T03:02:26;33.85;31.73;38.87;;
66456;Laerm;56833;52.254;5.598;2022-09-09T03:02:36;33.70;31.62;35.87;;
66456;Laerm;56833;52.254;5.598;2022-09-09T03:02:47;33.83;31.95;38.59;;
66456;Laerm;56833;52.254;5.598;2022-09-09T03:02:57;35.19;32.65;37.57;;
66456;Laerm;56833;52.254;5.598;2022-09-09T03:03:08;34.41;32.16;36.27;;
66456;Laerm;56833;52.254;5.598;2022-09-09T03:03:21;34.10;32.15;36.15;;
66456;Laerm;56833;52.254;5.598;2022-09-09T03:03:32;33.81;32.10;35.55;;
66456;Laerm;56833;52.254;5.598;2022-09-09T03:03:42;34.61;32.40;36.56;;
66456;Laerm;56833;52.254;5.598;2022-09-09T03:03:54;34.18;31.94;42.70;;
66456;Laerm;56833;52.254;5.598;2022-09-09T03:04:05;34.11;31.38;37.66;;
66456;Laerm;56833;52.254;5.598;2022-09-09T03:04:20;33.44;31.39;39.73;;
66456;Laerm;56833;52.254;5.598;2022-09-09T03:04:33;33.38;31.57;35.83;;
66456;Laerm;56833;52.254;5.598;2022-09-09T03:04:44;33.75;31.96;35.59;;
66456;Laerm;56833;52.254;5.598;2022-09-09T03:04:54;34.58;32.36;37.38;;
66456;Laerm;56833;52.254;5.598;2022-09-09T03:05:05;34.62;32.37;41.80;;
66456;Laerm;56833;52.254;5.598;2022-09-09T03:05:16;34.37;32.34;37.54;;
66456;Laerm;56833;52.254;5.598;2022-09-09T03:05:26;34.34;32.18;42.34;;
66456;Laerm;56833;52.254;5.598;2022-09-09T03:05:38;34.07;31.74;41.46;;
66456;Laerm;56833;52.254;5.598;2022-09-09T03:05:48;35.38;33.03;40.07;;
66456;Laerm;56833;52.254;5.598;2022-09-09T03:05:59;35.27;32.81;39.33;;
66456;Laerm;56833;52.254;5.598;2022-09-09T03:06:11;34.89;32.99;36.74;;
66456;Laerm;56833;52.254;5.598;2022-09-09T03:06:22;35.55;33.32;38.87;;
66456;Laerm;56833;52.254;5.598;2022-09-09T03:06:33;35.04;32.89;38.06;;
66456;Laerm;56833;52.254;5.598;2022-09-09T03:06:43;34.83;32.87;36.73;;
66456;Laerm;56833;52.254;5.598;2022-09-09T03:06:54;34.86;32.61;37.07;;
66456;Laerm;56833;52.254;5.598;2022-09-09T03:07:06;35.82;32.39;41.54;;
66456;Laerm;56833;52.254;5.598;2022-09-09T03:07:17;36.45;33.01;41.21;;
66456;Laerm;56833;52.254;5.598;2022-09-09T03:07:28;34.78;32.81;37.50;;
66456;Laerm;56833;52.254;5.598;2022-09-09T03:07:38;34.65;31.68;38.36;;
66456;Laerm;56833;52.254;5.598;2022-09-09T03:07:49;34.17;32.27;37.28;;
66456;Laerm;56833;52.254;5.598;2022-09-09T03:08:00;36.03;32.25;53.90;;
66456;Laerm;56833;52.254;5.598;2022-09-09T03:08:11;34.25;31.37;36.90;;
66456;Laerm;56833;52.254;5.598;2022-09-09T03:08:21;34.71;32.06;38.58;;
66456;Laerm;56833;52.254;5.598;2022-09-09T03:08:32;34.19;31.32;40.51;;
66456;Laerm;56833;52.254;5.598;2022-09-09T03:08:42;35.13;33.10;38.80;;
66456;Laerm;56833;52.254;5.598;2022-09-09T03:09:00;34.81;32.67;37.02;;
66456;Laerm;56833;52.254;5.598;2022-09-09T03:09:11;33.88;31.89;37.10;;
66456;Laerm;56833;52.254;5.598;2022-09-09T03:09:22;34.44;31.94;39.14;;
66456;Laerm;56833;52.254;5.598;2022-09-09T03:09:35;32.97;31.02;35.18;;
66456;Laerm;56833;52.254;5.598;2022-09-09T03:09:45;33.69;31.73;36.32;;
66456;Laerm;56833;52.254;5.598;2022-09-09T03:09:56;33.65;31.97;35.90;;
66456;Laerm;56833;52.254;5.598;2022-09-09T03:10:06;33.12;31.53;35.29;;
66456;Laerm;56833;52.254;5.598;2022-09-09T03:10:18;32.54;30.73;37.10;;
66456;Laerm;56833;52.254;5.598;2022-09-09T03:10:28;33.83;32.21;39.18;;
66456;Laerm;56833;52.254;5.598;2022-09-09T03:10:38;33.70;31.95;36.22;;
66456;Laerm;56833;52.254;5.598;2022-09-09T03:10:49;33.32;31.75;35.35;;
66456;Laerm;56833;52.254;5.598;2022-09-09T03:10:59;33.59;31.48;36.96;;
66456;Laerm;56833;52.254;5.598;2022-09-09T03:11:11;33.55;31.75;35.67;;
66456;Laerm;56833;52.254;5.598;2022-09-09T03:11:24;34.45;32.32;37.51;;
66456;Laerm;56833;52.254;5.598;2022-09-09T03:11:35;34.00;31.95;36.53;;
66456;Laerm;56833;52.254;5.598;2022-09-09T03:11:46;33.72;31.76;35.94;;
66456;Laerm;56833;52.254;5.598;2022-09-09T03:11:56;34.93;32.46;37.63;;
66456;Laerm;56833;52.254;5.598;2022-09-09T03:12:06;34.55;32.55;37.91;;
66456;Laerm;56833;52.254;5.598;2022-09-09T03:12:17;34.64;32.08;37.80;;
66456;Laerm;56833;52.254;5.598;2022-09-09T03:12:27;34.95;33.15;37.61;;
66456;Laerm;56833;52.254;5.598;2022-09-09T03:12:43;34.33;32.14;36.70;;
66456;Laerm;56833;52.254;5.598;2022-09-09T03:12:56;34.99;32.62;38.23;;
66456;Laerm;56833;52.254;5.598;2022-09-09T03:13:06;35.27;32.92;37.49;;
66456;Laerm;56833;52.254;5.598;2022-09-09T03:13:17;36.23;33.44;40.44;;
66456;Laerm;56833;52.254;5.598;2022-09-09T03:13:29;35.48;33.12;38.33;;
66456;Laerm;56833;52.254;5.598;2022-09-09T03:13:39;36.16;33.12;40.22;;
66456;Laerm;56833;52.254;5.598;2022-09-09T03:13:50;36.19;33.00;40.67;;
66456;Laerm;56833;52.254;5.598;2022-09-09T03:14:00;36.64;34.42;39.01;;
66456;Laerm;56833;52.254;5.598;2022-09-09T03:14:11;37.21;34.57;40.75;;
66456;Laerm;56833;52.254;5.598;2022-09-09T03:14:22;37.13;34.16;39.67;;
66456;Laerm;56833;52.254;5.598;2022-09-09T03:14:35;36.28;34.05;41.15;;
66456;Laerm;56833;52.254;5.598;2022-09-09T03:14:45;35.99;33.78;38.08;;
66456;Laerm;56833;52.254;5.598;2022-09-09T03:14:59;35.30;33.20;38.09;;
66456;Laerm;56833;52.254;5.598;2022-09-09T03:15:10;35.25;33.03;37.73;;
66456;Laerm;56833;52.254;5.598;2022-09-09T03:15:21;35.29;32.97;37.59;;
66456;Laerm;56833;52.254;5.598;2022-09-09T03:15:34;35.66;33.49;41.97;;
66456;Laerm;56833;52.254;5.598;2022-09-09T03:15:45;36.13;33.62;38.32;;
66456;Laerm;56833;52.254;5.598;2022-09-09T03:15:58;35.11;30.96;37.50;;
66456;Laerm;56833;52.254;5.598;2022-09-09T03:16:08;34.00;31.31;42.07;;
66456;Laerm;56833;52.254;5.598;2022-09-09T03:16:22;35.45;33.09;38.22;;
66456;Laerm;56833;52.254;5.598;2022-09-09T03:16:35;34.82;32.50;38.05;;
66456;Laerm;56833;52.254;5.598;2022-09-09T03:16:46;34.22;31.20;45.74;;
66456;Laerm;56833;52.254;5.598;2022-09-09T03:16:56;35.04;32.24;37.68;;
66456;Laerm;56833;52.254;5.598;2022-09-09T03:17:12;34.90;32.79;37.93;;
66456;Laerm;56833;52.254;5.598;2022-09-09T03:17:23;34.26;31.53;41.16;;
66456;Laerm;56833;52.254;5.598;2022-09-09T03:17:34;33.68;31.44;35.80;;
66456;Laerm;56833;52.254;5.598;2022-09-09T03:17:45;33.89;31.78;42.42;;
66456;Laerm;56833;52.254;5.598;2022-09-09T03:17:58;33.71;31.04;41.71;;
66456;Laerm;56833;52.254;5.598;2022-09-09T03:18:09;33.94;31.95;36.18;;
66456;Laerm;56833;52.254;5.598;2022-09-09T03:18:19;33.88;31.94;35.65;;
66456;Laerm;56833;52.254;5.598;2022-09-09T03:18:33;35.34;32.19;53.44;;
66456;Laerm;56833;52.254;5.598;2022-09-09T03:18:44;36.15;33.64;41.37;;
66456;Laerm;56833;52.254;5.598;2022-09-09T03:18:58;35.20;33.06;38.45;;
66456;Laerm;56833;52.254;5.598;2022-09-09T03:19:09;34.86;32.98;36.80;;
66456;Laerm;56833;52.254;5.598;2022-09-09T03:19:19;35.06;32.98;38.23;;
66456;Laerm;56833;52.254;5.598;2022-09-09T03:19:30;34.91;32.17;38.46;;
66456;Laerm;56833;52.254;5.598;2022-09-09T03:19:41;34.01;31.50;36.71;;